sensor_id;sensor_type;location;lat;lon;timestamp;pressure;altitude;pressure_sealevel;temperature;humidity
75208;BME280;63795;55.684;37.864;2023-03-11T00:02:20;99420.31;;;-4.84;60.09
75208;BME280;63795;55.684;37.864;2023-03-11T00:07:21;99407.25;;;-4.92;60.23
75208;BME280;63795;55.684;37.864;2023-03-11T00:12:21;99419.13;;;-4.91;60.15
75208;BME280;63795;55.684;37.864;2023-03-11T00:17:22;99411.09;;;-5.01;59.68
75208;BME280;63795;55.684;37.864;2023-03-11T00:22:22;99411.41;;;-5.03;59.85
75208;BME280;63795;55.684;37.864;2023-03-11T00:27:23;99418.41;;;-4.97;60.43
75208;BME280;63795;55.684;37.864;2023-03-11T00:32:23;99407.88;;;-4.95;60.43
75208;BME280;63795;55.684;37.864;2023-03-11T00:37:24;99412.34;;;-4.85;60.86
75208;BME280;63795;55.684;37.864;2023-03-11T00:42:24;99416.81;;;-4.98;61.05
75208;BME280;63795;55.684;37.864;2023-03-11T00:47:25;99420.91;;;-4.95;61.04
75208;BME280;63795;55.684;37.864;2023-03-11T00:52:25;99408.88;;;-4.91;60.48
75208;BME280;63795;55.684;37.864;2023-03-11T00:57:26;99419.41;;;-5.01;60.95
75208;BME280;63795;55.684;37.864;2023-03-11T01:02:28;99414.56;;;-5.18;60.85
75208;BME280;63795;55.684;37.864;2023-03-11T01:07:28;99425.59;;;-5.40;61.23
75208;BME280;63795;55.684;37.864;2023-03-11T01:12:29;99409.66;;;-5.65;62.13
75208;BME280;63795;55.684;37.864;2023-03-11T01:17:29;99415.69;;;-5.63;62.12
75208;BME280;63795;55.684;37.864;2023-03-11T01:22:30;99423.56;;;-5.70;62.68
75208;BME280;63795;55.684;37.864;2023-03-11T01:27:30;99429.25;;;-5.67;62.81
75208;BME280;63795;55.684;37.864;2023-03-11T01:32:31;99408.84;;;-5.66;62.63
75208;BME280;63795;55.684;37.864;2023-03-11T01:37:31;99405.94;;;-5.61;62.48
75208;BME280;63795;55.684;37.864;2023-03-11T01:42:32;99412.41;;;-5.65;62.29
75208;BME280;63795;55.684;37.864;2023-03-11T01:47:36;99421.63;;;-5.70;62.75
75208;BME280;63795;55.684;37.864;2023-03-11T01:52:37;99411.81;;;-5.76;62.58
75208;BME280;63795;55.684;37.864;2023-03-11T01:57:40;99404.41;;;-5.89;63.24
75208;BME280;63795;55.684;37.864;2023-03-11T02:02:45;99418.84;;;-5.92;62.98
75208;BME280;63795;55.684;37.864;2023-03-11T02:07:48;99418.53;;;-5.90;63.09
75208;BME280;63795;55.684;37.864;2023-03-11T02:12:49;99408.22;;;-5.98;62.65
75208;BME280;63795;55.684;37.864;2023-03-11T02:17:51;99416.63;;;-6.03;63.02
75208;BME280;63795;55.684;37.864;2023-03-11T02:22:54;99409.38;;;-6.13;63.35
75208;BME280;63795;55.684;37.864;2023-03-11T02:27:57;99415.72;;;-6.13;63.46
75208;BME280;63795;55.684;37.864;2023-03-11T02:32:59;99407.94;;;-6.11;64.06
75208;BME280;63795;55.684;37.864;2023-03-11T02:38:00;99406.09;;;-6.15;64.64
75208;BME280;63795;55.684;37.864;2023-03-11T02:43:04;99415.72;;;-6.13;64.31
75208;BME280;63795;55.684;37.864;2023-03-11T02:48:08;99407.75;;;-6.14;64.80
75208;BME280;63795;55.684;37.864;2023-03-11T02:53:09;99403.66;;;-6.17;65.03
75208;BME280;63795;55.684;37.864;2023-03-11T02:58:09;99418.06;;;-6.20;65.63
75208;BME280;63795;55.684;37.864;2023-03-11T03:03:10;99412.06;;;-6.22;66.72
75208;BME280;63795;55.684;37.864;2023-03-11T03:08:10;99409.38;;;-6.27;67.25
75208;BME280;63795;55.684;37.864;2023-03-11T03:13:11;99410.09;;;-6.35;68.32
75208;BME280;63795;55.684;37.864;2023-03-11T03:18:11;99414.09;;;-6.41;70.39
75208;BME280;63795;55.684;37.864;2023-03-11T03:23:12;99405.94;;;-6.46;69.61
75208;BME280;63795;55.684;37.864;2023-03-11T03:28:12;99415.44;;;-6.52;71.09
75208;BME280;63795;55.684;37.864;2023-03-11T03:33:13;99415.63;;;-6.48;71.47
75208;BME280;63795;55.684;37.864;2023-03-11T03:38:13;99417.28;;;-6.47;72.07
75208;BME280;63795;55.684;37.864;2023-03-11T03:43:14;99412.88;;;-6.48;72.04
75208;BME280;63795;55.684;37.864;2023-03-11T03:48:14;99412.88;;;-6.48;72.38
75208;BME280;63795;55.684;37.864;2023-03-11T03:53:17;99411.53;;;-6.51;73.25
75208;BME280;63795;55.684;37.864;2023-03-11T03:58:18;99404.50;;;-6.57;74.38
75208;BME280;63795;55.684;37.864;2023-03-11T04:03:18;99393.47;;;-6.57;74.74
75208;BME280;63795;55.684;37.864;2023-03-11T04:08:19;99392.25;;;-6.51;74.71
75208;BME280;63795;55.684;37.864;2023-03-11T04:13:19;99397.34;;;-6.44;75.04
75208;BME280;63795;55.684;37.864;2023-03-11T04:18:19;99383.88;;;-6.46;74.58
75208;BME280;63795;55.684;37.864;2023-03-11T04:23:22;99380.00;;;-6.45;75.33
75208;BME280;63795;55.684;37.864;2023-03-11T04:28:22;99385.50;;;-6.45;76.28
75208;BME280;63795;55.684;37.864;2023-03-11T04:33:22;99375.69;;;-6.37;75.96
75208;BME280;63795;55.684;37.864;2023-03-11T04:38:24;99360.81;;;-6.36;75.29
75208;BME280;63795;55.684;37.864;2023-03-11T04:43:24;99362.84;;;-6.28;75.66
75208;BME280;63795;55.684;37.864;2023-03-11T04:48:25;99350.97;;;-6.29;75.45
75208;BME280;63795;55.684;37.864;2023-03-11T04:53:26;99360.59;;;-6.26;75.26
75208;BME280;63795;55.684;37.864;2023-03-11T04:58:27;99350.38;;;-6.26;76.51
75208;BME280;63795;55.684;37.864;2023-03-11T05:03:27;99354.44;;;-6.23;76.25
75208;BME280;63795;55.684;37.864;2023-03-11T05:08:28;99367.22;;;-6.14;76.49
75208;BME280;63795;55.684;37.864;2023-03-11T05:13:28;99353.91;;;-6.12;75.48
75208;BME280;63795;55.684;37.864;2023-03-11T05:18:29;99336.38;;;-6.16;75.30
75208;BME280;63795;55.684;37.864;2023-03-11T05:23:31;99336.13;;;-6.05;75.21
75208;BME280;63795;55.684;37.864;2023-03-11T05:28:32;99332.56;;;-6.06;75.03
75208;BME280;63795;55.684;37.864;2023-03-11T05:33:32;99342.75;;;-6.07;75.38
75208;BME280;63795;55.684;37.864;2023-03-11T05:38:35;99338.66;;;-6.09;75.31
75208;BME280;63795;55.684;37.864;2023-03-11T05:43:36;99336.22;;;-6.11;75.07
75208;BME280;63795;55.684;37.864;2023-03-11T05:48:37;99337.06;;;-6.10;75.30
75208;BME280;63795;55.684;37.864;2023-03-11T05:53:41;99337.88;;;-6.10;75.44
75208;BME280;63795;55.684;37.864;2023-03-11T05:58:41;99328.59;;;-6.14;75.22
75208;BME280;63795;55.684;37.864;2023-03-11T06:03:42;99336.41;;;-6.07;75.23
75208;BME280;63795;55.684;37.864;2023-03-11T06:08:43;99322.63;;;-6.07;75.52
75208;BME280;63795;55.684;37.864;2023-03-11T06:13:51;99327.03;;;-6.06;75.09
75208;BME280;63795;55.684;37.864;2023-03-11T06:18:52;99332.38;;;-6.10;75.59
75208;BME280;63795;55.684;37.864;2023-03-11T06:23:53;99335.72;;;-6.13;75.56
75208;BME280;63795;55.684;37.864;2023-03-11T06:28:54;99329.91;;;-6.11;75.87
75208;BME280;63795;55.684;37.864;2023-03-11T06:33:54;99344.41;;;-6.05;75.83
75208;BME280;63795;55.684;37.864;2023-03-11T06:38:55;99320.88;;;-6.03;75.36
75208;BME280;63795;55.684;37.864;2023-03-11T06:43:58;99320.09;;;-6.03;75.33
75208;BME280;63795;55.684;37.864;2023-03-11T06:48:59;99320.38;;;-6.05;75.83
75208;BME280;63795;55.684;37.864;2023-03-11T06:53:59;99316.19;;;-6.02;75.74
75208;BME280;63795;55.684;37.864;2023-03-11T06:59:00;99318.25;;;-6.08;76.04
75208;BME280;63795;55.684;37.864;2023-03-11T07:04:00;99296.50;;;-6.10;76.27
75208;BME280;63795;55.684;37.864;2023-03-11T07:09:01;99316.59;;;-6.09;76.63
75208;BME280;63795;55.684;37.864;2023-03-11T07:14:01;99323.63;;;-6.03;76.27
75208;BME280;63795;55.684;37.864;2023-03-11T07:19:02;99304.31;;;-6.03;76.21
75208;BME280;63795;55.684;37.864;2023-03-11T07:24:03;99304.84;;;-6.01;76.95
75208;BME280;63795;55.684;37.864;2023-03-11T07:29:04;99308.19;;;-5.90;76.61
75208;BME280;63795;55.684;37.864;2023-03-11T07:34:06;99296.53;;;-5.87;76.53
75208;BME280;63795;55.684;37.864;2023-03-11T07:39:15;99299.78;;;-5.85;76.38
75208;BME280;63795;55.684;37.864;2023-03-11T07:44:16;99268.34;;;-5.76;76.12
75208;BME280;63795;55.684;37.864;2023-03-11T07:49:17;99269.16;;;-5.75;75.59
75208;BME280;63795;55.684;37.864;2023-03-11T07:54:17;99249.84;;;-5.75;75.54
75208;BME280;63795;55.684;37.864;2023-03-11T07:59:18;99247.69;;;-5.78;76.10
75208;BME280;63795;55.684;37.864;2023-03-11T08:04:18;99240.91;;;-5.72;77.20
75208;BME280;63795;55.684;37.864;2023-03-11T08:09:19;99234.56;;;-5.73;77.07
75208;BME280;63795;55.684;37.864;2023-03-11T08:14:19;99227.13;;;-5.72;77.16
75208;BME280;63795;55.684;37.864;2023-03-11T08:19:20;99222.75;;;-5.73;77.69
75208;BME280;63795;55.684;37.864;2023-03-11T08:24:20;99212.50;;;-5.73;77.68
75208;BME280;63795;55.684;37.864;2023-03-11T08:29:21;99194.81;;;-5.72;77.88
75208;BME280;63795;55.684;37.864;2023-03-11T08:34:21;99203.28;;;-5.68;77.79
75208;BME280;63795;55.684;37.864;2023-03-11T08:39:22;99196.16;;;-5.61;77.45
75208;BME280;63795;55.684;37.864;2023-03-11T08:44:23;99174.28;;;-5.57;77.23
75208;BME280;63795;55.684;37.864;2023-03-11T08:49:23;99172.84;;;-5.46;76.87
75208;BME280;63795;55.684;37.864;2023-03-11T08:54:24;99165.72;;;-5.39;76.39
75208;BME280;63795;55.684;37.864;2023-03-11T08:59:24;99166.25;;;-5.28;76.08
75208;BME280;63795;55.684;37.864;2023-03-11T09:04:25;99198.63;;;-5.20;76.01
75208;BME280;63795;55.684;37.864;2023-03-11T09:09:25;99177.69;;;-5.21;76.27
75208;BME280;63795;55.684;37.864;2023-03-11T09:14:26;99170.50;;;-5.22;77.03
75208;BME280;63795;55.684;37.864;2023-03-11T09:19:26;99163.38;;;-5.23;77.21
75208;BME280;63795;55.684;37.864;2023-03-11T09:24:27;99155.41;;;-5.16;76.81
75208;BME280;63795;55.684;37.864;2023-03-11T09:29:27;99142.09;;;-5.14;76.09
75208;BME280;63795;55.684;37.864;2023-03-11T09:34:28;99149.22;;;-5.13;75.84
75208;BME280;63795;55.684;37.864;2023-03-11T09:39:29;99136.41;;;-5.09;76.14
75208;BME280;63795;55.684;37.864;2023-03-11T09:44:42;99135.63;;;-5.09;75.82
75208;BME280;63795;55.684;37.864;2023-03-11T09:55:06;99127.81;;;-5.07;75.27
75208;BME280;63795;55.684;37.864;2023-03-11T10:00:12;99125.84;;;-5.07;75.67
75208;BME280;63795;55.684;37.864;2023-03-11T10:05:26;99099.22;;;-5.11;75.61
75208;BME280;63795;55.684;37.864;2023-03-11T10:10:31;99102.78;;;-5.02;75.59
75208;BME280;63795;55.684;37.864;2023-03-11T10:15:48;99075.81;;;-4.97;75.45
75208;BME280;63795;55.684;37.864;2023-03-11T10:26:28;99073.53;;;-4.86;74.78
75208;BME280;63795;55.684;37.864;2023-03-11T10:31:36;99038.94;;;-4.84;75.07
75208;BME280;63795;55.684;37.864;2023-03-11T10:41:59;99016.63;;;-4.79;75.32
75208;BME280;63795;55.684;37.864;2023-03-11T10:47:01;99006.56;;;-4.75;75.10
75208;BME280;63795;55.684;37.864;2023-03-11T10:52:03;99000.03;;;-4.70;75.04
75208;BME280;63795;55.684;37.864;2023-03-11T11:02:31;98997.91;;;-4.65;74.84
75208;BME280;63795;55.684;37.864;2023-03-11T11:07:35;98974.34;;;-4.62;74.71
75208;BME280;63795;55.684;37.864;2023-03-11T11:17:56;98969.91;;;-4.55;74.55
75208;BME280;63795;55.684;37.864;2023-03-11T11:22:59;98955.94;;;-4.50;74.57
75208;BME280;63795;55.684;37.864;2023-03-11T11:28:15;98946.66;;;-4.45;74.37
75208;BME280;63795;55.684;37.864;2023-03-11T11:33:22;98941.75;;;-4.40;74.32
75208;BME280;63795;55.684;37.864;2023-03-11T11:38:25;98920.91;;;-4.37;74.49
75208;BME280;63795;55.684;37.864;2023-03-11T11:43:50;98921.50;;;-4.23;74.14
75208;BME280;63795;55.684;37.864;2023-03-11T11:54:37;98926.50;;;-4.16;74.01
75208;BME280;63795;55.684;37.864;2023-03-11T11:59:40;98915.59;;;-4.13;74.29
75208;BME280;63795;55.684;37.864;2023-03-11T12:04:50;98917.69;;;-4.10;74.47
75208;BME280;63795;55.684;37.864;2023-03-11T12:15:28;98903.34;;;-4.03;74.11
75208;BME280;63795;55.684;37.864;2023-03-11T12:30:59;98885.38;;;-3.97;73.97
75208;BME280;63795;55.684;37.864;2023-03-11T12:36:03;98893.34;;;-3.96;73.56
75208;BME280;63795;55.684;37.864;2023-03-11T12:41:26;98886.03;;;-4.00;73.98
75208;BME280;63795;55.684;37.864;2023-03-11T12:57:36;98869.03;;;-3.90;74.25
75208;BME280;63795;55.684;37.864;2023-03-11T13:13:38;98861.22;;;-3.88;74.50
75208;BME280;63795;55.684;37.864;2023-03-11T13:18:41;98851.09;;;-3.84;74.41
75208;BME280;63795;55.684;37.864;2023-03-11T13:23:41;98842.44;;;-3.83;74.51
75208;BME280;63795;55.684;37.864;2023-03-11T13:28:54;98831.53;;;-3.79;74.49
75208;BME280;63795;55.684;37.864;2023-03-11T13:44:49;98814.72;;;-3.74;74.94
75208;BME280;63795;55.684;37.864;2023-03-11T13:49:57;98802.16;;;-3.72;75.06
75208;BME280;63795;55.684;37.864;2023-03-11T13:55:02;98795.13;;;-3.69;75.42
75208;BME280;63795;55.684;37.864;2023-03-11T14:00:16;98783.84;;;-3.64;75.58
75208;BME280;63795;55.684;37.864;2023-03-11T14:05:21;98774.16;;;-3.58;75.84
75208;BME280;63795;55.684;37.864;2023-03-11T14:10:27;98773.97;;;-3.53;75.98
75208;BME280;63795;55.684;37.864;2023-03-11T14:15:36;98761.38;;;-3.51;75.73
75208;BME280;63795;55.684;37.864;2023-03-11T14:20:39;98777.78;;;-3.46;75.86
75208;BME280;63795;55.684;37.864;2023-03-11T14:25:40;98751.38;;;-3.43;75.77
75208;BME280;63795;55.684;37.864;2023-03-11T14:30:54;98743.53;;;-3.41;75.87
75208;BME280;63795;55.684;37.864;2023-03-11T14:36:00;98723.44;;;-3.38;75.70
75208;BME280;63795;55.684;37.864;2023-03-11T14:41:05;98711.91;;;-3.40;75.53
75208;BME280;63795;55.684;37.864;2023-03-11T14:46:06;98700.63;;;-3.35;75.50
75208;BME280;63795;55.684;37.864;2023-03-11T14:51:25;98697.84;;;-3.35;75.50
75208;BME280;63795;55.684;37.864;2023-03-11T14:56:26;98705.09;;;-3.30;75.49
75208;BME280;63795;55.684;37.864;2023-03-11T15:01:29;98689.41;;;-3.26;75.26
75208;BME280;63795;55.684;37.864;2023-03-11T15:06:31;98712.84;;;-3.24;75.13
75208;BME280;63795;55.684;37.864;2023-03-11T15:11:50;98697.41;;;-3.25;75.11
75208;BME280;63795;55.684;37.864;2023-03-11T15:22:26;98696.94;;;-3.15;74.86
75208;BME280;63795;55.684;37.864;2023-03-11T15:27:36;98683.78;;;-3.18;74.99
75208;BME280;63795;55.684;37.864;2023-03-11T15:32:39;98677.09;;;-3.17;75.07
75208;BME280;63795;55.684;37.864;2023-03-11T15:37:41;98673.16;;;-3.16;75.17
75208;BME280;63795;55.684;37.864;2023-03-11T15:42:42;98661.03;;;-3.11;75.05
75208;BME280;63795;55.684;37.864;2023-03-11T15:47:45;98654.00;;;-3.09;75.53
75208;BME280;63795;55.684;37.864;2023-03-11T15:52:46;98641.06;;;-3.05;75.23
75208;BME280;63795;55.684;37.864;2023-03-11T15:57:48;98630.91;;;-3.01;75.49
75208;BME280;63795;55.684;37.864;2023-03-11T16:02:49;98621.41;;;-3.00;75.50
75208;BME280;63795;55.684;37.864;2023-03-11T16:07:50;98617.50;;;-2.99;75.58
75208;BME280;63795;55.684;37.864;2023-03-11T16:12:50;98603.03;;;-2.92;75.65
75208;BME280;63795;55.684;37.864;2023-03-11T16:17:52;98597.50;;;-2.92;75.71
75208;BME280;63795;55.684;37.864;2023-03-11T16:22:55;98603.84;;;-2.92;76.14
75208;BME280;63795;55.684;37.864;2023-03-11T16:27:58;98614.81;;;-2.83;76.10
75208;BME280;63795;55.684;37.864;2023-03-11T16:32:59;98595.06;;;-2.82;76.26
75208;BME280;63795;55.684;37.864;2023-03-11T16:37:59;98569.75;;;-2.80;76.39
75208;BME280;63795;55.684;37.864;2023-03-11T16:43:05;98566.66;;;-2.79;76.33
75208;BME280;63795;55.684;37.864;2023-03-11T16:48:06;98558.88;;;-2.73;76.42
75208;BME280;63795;55.684;37.864;2023-03-11T16:53:06;98544.66;;;-2.72;76.38
75208;BME280;63795;55.684;37.864;2023-03-11T16:58:07;98524.09;;;-2.71;76.39
75208;BME280;63795;55.684;37.864;2023-03-11T17:03:14;98532.16;;;-2.66;76.04
75208;BME280;63795;55.684;37.864;2023-03-11T17:08:15;98514.00;;;-2.63;76.26
75208;BME280;63795;55.684;37.864;2023-03-11T17:13:17;98511.78;;;-2.58;76.03
75208;BME280;63795;55.684;37.864;2023-03-11T17:18:17;98511.06;;;-2.54;76.03
75208;BME280;63795;55.684;37.864;2023-03-11T17:23:18;98504.00;;;-2.52;75.97
75208;BME280;63795;55.684;37.864;2023-03-11T17:28:19;98484.22;;;-2.50;75.97
75208;BME280;63795;55.684;37.864;2023-03-11T17:33:19;98477.25;;;-2.44;76.02
75208;BME280;63795;55.684;37.864;2023-03-11T17:38:19;98471.38;;;-2.43;75.96
75208;BME280;63795;55.684;37.864;2023-03-11T17:43:20;98480.69;;;-2.35;75.74
75208;BME280;63795;55.684;37.864;2023-03-11T17:48:21;98446.66;;;-2.32;75.97
75208;BME280;63795;55.684;37.864;2023-03-11T17:53:22;98442.84;;;-2.28;76.36
75208;BME280;63795;55.684;37.864;2023-03-11T17:58:22;98427.91;;;-2.23;76.33
75208;BME280;63795;55.684;37.864;2023-03-11T18:03:23;98413.75;;;-2.18;76.78
75208;BME280;63795;55.684;37.864;2023-03-11T18:08:24;98411.84;;;-2.14;76.96
75208;BME280;63795;55.684;37.864;2023-03-11T18:13:24;98408.47;;;-2.08;77.07
75208;BME280;63795;55.684;37.864;2023-03-11T18:18:25;98401.84;;;-2.03;77.27
75208;BME280;63795;55.684;37.864;2023-03-11T18:23:26;98407.09;;;-1.98;77.61
75208;BME280;63795;55.684;37.864;2023-03-11T18:28:27;98400.56;;;-1.90;77.81
75208;BME280;63795;55.684;37.864;2023-03-11T18:33:27;98387.47;;;-1.90;78.27
75208;BME280;63795;55.684;37.864;2023-03-11T18:38:28;98394.00;;;-1.82;78.28
75208;BME280;63795;55.684;37.864;2023-03-11T18:43:28;98386.94;;;-1.80;78.51
75208;BME280;63795;55.684;37.864;2023-03-11T18:48:29;98378.31;;;-1.75;79.00
75208;BME280;63795;55.684;37.864;2023-03-11T18:53:29;98360.13;;;-1.72;79.43
75208;BME280;63795;55.684;37.864;2023-03-11T18:58:30;98347.56;;;-1.66;79.66
75208;BME280;63795;55.684;37.864;2023-03-11T19:03:31;98329.81;;;-1.61;79.68
75208;BME280;63795;55.684;37.864;2023-03-11T19:08:31;98326.31;;;-1.58;79.77
75208;BME280;63795;55.684;37.864;2023-03-11T19:13:32;98297.78;;;-1.55;79.99
75208;BME280;63795;55.684;37.864;2023-03-11T19:18:33;98288.75;;;-1.52;79.95
75208;BME280;63795;55.684;37.864;2023-03-11T19:23:34;98271.75;;;-1.47;79.98
75208;BME280;63795;55.684;37.864;2023-03-11T19:28:34;98263.94;;;-1.42;79.79
75208;BME280;63795;55.684;37.864;2023-03-11T19:33:35;98264.81;;;-1.38;79.86
75208;BME280;63795;55.684;37.864;2023-03-11T19:38:35;98246.22;;;-1.34;80.19
75208;BME280;63795;55.684;37.864;2023-03-11T19:43:36;98237.16;;;-1.31;80.30
75208;BME280;63795;55.684;37.864;2023-03-11T19:48:37;98218.91;;;-1.28;80.70
75208;BME280;63795;55.684;37.864;2023-03-11T19:53:37;98208.19;;;-1.30;81.36
75208;BME280;63795;55.684;37.864;2023-03-11T19:58:40;98195.97;;;-1.25;81.78
75208;BME280;63795;55.684;37.864;2023-03-11T20:03:41;98197.56;;;-1.24;81.74
75208;BME280;63795;55.684;37.864;2023-03-11T20:08:44;98184.91;;;-1.22;82.71
75208;BME280;63795;55.684;37.864;2023-03-11T20:13:47;98184.97;;;-1.18;82.99
75208;BME280;63795;55.684;37.864;2023-03-11T20:18:49;98178.66;;;-1.15;83.17
75208;BME280;63795;55.684;37.864;2023-03-11T20:23:54;98154.81;;;-1.16;83.95
75208;BME280;63795;55.684;37.864;2023-03-11T20:28:55;98128.25;;;-1.14;83.84
75208;BME280;63795;55.684;37.864;2023-03-11T20:34:01;98121.97;;;-1.11;84.11
75208;BME280;63795;55.684;37.864;2023-03-11T20:39:03;98117.19;;;-1.10;84.10
75208;BME280;63795;55.684;37.864;2023-03-11T20:44:06;98099.41;;;-1.06;84.56
75208;BME280;63795;55.684;37.864;2023-03-11T20:49:10;98088.75;;;-1.00;84.71
75208;BME280;63795;55.684;37.864;2023-03-11T20:54:14;98078.06;;;-0.98;85.31
75208;BME280;63795;55.684;37.864;2023-03-11T20:59:29;98068.97;;;-0.95;85.62
75208;BME280;63795;55.684;37.864;2023-03-11T21:04:29;98058.34;;;-0.90;85.68
75208;BME280;63795;55.684;37.864;2023-03-11T21:09:30;98033.34;;;-0.86;86.02
75208;BME280;63795;55.684;37.864;2023-03-11T21:14:30;98023.47;;;-0.83;86.16
75208;BME280;63795;55.684;37.864;2023-03-11T21:19:31;98014.78;;;-0.78;86.58
75208;BME280;63795;55.684;37.864;2023-03-11T21:24:31;98001.31;;;-0.76;86.81
75208;BME280;63795;55.684;37.864;2023-03-11T21:29:32;97985.91;;;-0.70;87.06
75208;BME280;63795;55.684;37.864;2023-03-11T21:34:32;97975.66;;;-0.63;86.99
75208;BME280;63795;55.684;37.864;2023-03-11T21:39:32;97960.19;;;-0.60;86.87
75208;BME280;63795;55.684;37.864;2023-03-11T21:44:33;97940.75;;;-0.57;87.50
75208;BME280;63795;55.684;37.864;2023-03-11T21:49:33;97936.81;;;-0.52;87.50
75208;BME280;63795;55.684;37.864;2023-03-11T21:54:34;97911.00;;;-0.49;87.75
75208;BME280;63795;55.684;37.864;2023-03-11T21:59:34;97909.47;;;-0.43;87.72
75208;BME280;63795;55.684;37.864;2023-03-11T22:04:35;97898.38;;;-0.40;87.79
75208;BME280;63795;55.684;37.864;2023-03-11T22:09:35;97890.44;;;-0.38;88.13
75208;BME280;63795;55.684;37.864;2023-03-11T22:14:36;97879.78;;;-0.32;87.90
75208;BME280;63795;55.684;37.864;2023-03-11T22:19:36;97872.28;;;-0.28;88.19
75208;BME280;63795;55.684;37.864;2023-03-11T22:24:37;97854.03;;;-0.22;88.38
75208;BME280;63795;55.684;37.864;2023-03-11T22:29:37;97857.63;;;-0.18;88.69
75208;BME280;63795;55.684;37.864;2023-03-11T22:34:38;97834.56;;;-0.19;88.70
75208;BME280;63795;55.684;37.864;2023-03-11T22:39:39;97835.00;;;-0.10;88.71
75208;BME280;63795;55.684;37.864;2023-03-11T22:44:39;97825.50;;;-0.05;88.88
75208;BME280;63795;55.684;37.864;2023-03-11T22:49:41;97813.63;;;-0.02;88.78
75208;BME280;63795;55.684;37.864;2023-03-11T22:54:42;97812.84;;;0.05;88.81
75208;BME280;63795;55.684;37.864;2023-03-11T22:59:43;97797.75;;;0.09;88.92
75208;BME280;63795;55.684;37.864;2023-03-11T23:04:44;97789.00;;;0.11;88.91
75208;BME280;63795;55.684;37.864;2023-03-11T23:09:45;97770.72;;;0.13;89.12
75208;BME280;63795;55.684;37.864;2023-03-11T23:14:45;97754.41;;;0.12;89.05
75208;BME280;63795;55.684;37.864;2023-03-11T23:19:46;97740.50;;;0.19;89.04
75208;BME280;63795;55.684;37.864;2023-03-11T23:24:46;97740.94;;;0.24;89.37
75208;BME280;63795;55.684;37.864;2023-03-11T23:29:47;97739.38;;;0.30;89.30
75208;BME280;63795;55.684;37.864;2023-03-11T23:34:48;97707.94;;;0.33;89.39
75208;BME280;63795;55.684;37.864;2023-03-11T23:39:48;97712.34;;;0.38;89.70
75208;BME280;63795;55.684;37.864;2023-03-11T23:44:49;97688.88;;;0.42;89.66
75208;BME280;63795;55.684;37.864;2023-03-11T23:49:49;97681.34;;;0.50;89.87
75208;BME280;63795;55.684;37.864;2023-03-11T23:54:50;97681.75;;;0.52;89.85
75208;BME280;63795;55.684;37.864;2023-03-11T23:59:50;97657.47;;;0.56;89.97
